Time;durP1;ratioP1;P1;durP2;ratioP2;P2;SDS_P1;SDS_P2;PMS_P1;PMS_P2;Temp;Humidity;BMP_temperature;BMP_pressure;BME280_temperature;BME280_humidity;BME280_pressure;Samples;Min_cycle;Max_cycle;Signal;HPM_P1;HPM_P2
2022/09/18 00:00:42;;;;;;;;;;;12.10;62.10;;;;;;5119645;28;19908;-49
2022/09/18 00:03:09;;;;;;;;;;;12.00;63.50;;;;;;5119027;28;20329;-53
2022/09/18 00:05:35;;;;;;;;;;;12.00;65.60;;;;;;5119628;28;20370;-48
2022/09/18 00:08:00;;;;;;;;;;;11.90;61.40;;;;;;5119716;28;19915;-48
2022/09/18 00:10:26;;;;;;;;;;;11.90;64.60;;;;;;5119495;28;19908;-48
2022/09/18 00:12:52;;;;;;;;;;;11.80;62.40;;;;;;5119162;28;19947;-50
2022/09/18 00:15:17;;;;;;;;;;;11.80;64.40;;;;;;5119348;28;20255;-51
2022/09/18 00:17:43;;;;;;;;;;;11.80;63.10;;;;;;5119088;28;19911;-49
2022/09/18 00:20:08;;;;;;;;;;;11.80;66.10;;;;;;5119239;28;19908;-49
2022/09/18 00:22:34;;;;;;;;;;;11.80;67.40;;;;;;5119407;28;20363;-50
2022/09/18 00:25:00;;;;;;;;;;;11.80;66.90;;;;;;5119053;28;19962;-51
2022/09/18 00:27:25;;;;;;;;;;;11.70;62.40;;;;;;5118920;28;19915;-50
2022/09/18 00:29:51;;;;;;;;;;;11.70;63.20;;;;;;5119392;28;19914;-49
2022/09/18 00:32:17;;;;;;;;;;;11.70;64.50;;;;;;5118959;28;20425;-50
2022/09/18 00:34:42;;;;;;;;;;;11.60;65.40;;;;;;5119028;28;19908;-50
2022/09/18 00:37:08;;;;;;;;;;;11.60;62.20;;;;;;5118776;28;19907;-51
2022/09/18 00:39:34;;;;;;;;;;;11.50;64.50;;;;;;5119003;28;19912;-50
2022/09/18 00:41:59;;;;;;;;;;;11.50;61.60;;;;;;5118842;28;20384;-47
2022/09/18 00:44:39;;;;;;;;;;;11.40;62.60;;;;;;5118613;28;19911;-48
2022/09/18 00:47:10;;;;;;;;;;;11.40;61.90;;;;;;5118726;28;19911;-49
2022/09/18 00:49:37;;;;;;;;;;;11.40;64.00;;;;;;5118817;28;19908;-48
2022/09/18 00:52:03;;;;;;;;;;;11.40;63.30;;;;;;5118933;28;19908;-48
2022/09/18 00:54:29;;;;;;;;;;;11.30;62.50;;;;;;5118756;28;19915;-51
2022/09/18 00:56:56;;;;;;;;;;;11.30;65.00;;;;;;5118717;28;20354;-49
2022/09/18 00:59:25;;;;;;;;;;;11.30;65.50;;;;;;5118516;28;20304;-50
2022/09/18 01:01:50;;;;;;;;;;;11.30;64.80;;;;;;5118841;28;19908;-46
2022/09/18 01:04:16;;;;;;;;;;;11.30;62.70;;;;;;5118176;28;19920;-49
2022/09/18 01:06:48;;;;;;;;;;;11.30;64.70;;;;;;5118409;28;20003;-50
2022/09/18 01:09:19;;;;;;;;;;;11.40;66.10;;;;;;5118618;28;19912;-48
2022/09/18 01:11:49;;;;;;;;;;;11.40;62.80;;;;;;5118542;28;19908;-47
2022/09/18 01:14:15;;;;;;;;;;;11.40;65.20;;;;;;5118356;28;19916;-50
2022/09/18 01:16:59;;;;;;;;;;;11.40;65.40;;;;;;5118540;28;19962;-50
2022/09/18 01:19:48;;;;;;;;;;;11.40;67.20;;;;;;5118458;28;19908;-51
2022/09/18 01:22:49;;;;;;;;;;;11.30;65.90;;;;;;5104628;28;19994;-49
2022/09/18 01:25:26;;;;;;;;;;;11.30;64.00;;;;;;5015886;28;20359;-47
2022/09/18 01:27:54;;;;;;;;;;;11.30;66.10;;;;;;5104946;28;19908;-48
2022/09/18 01:30:20;;;;;;;;;;;11.30;65.10;;;;;;5118463;28;20236;-52
2022/09/18 01:32:57;;;;;;;;;;;11.30;66.60;;;;;;5118392;28;20427;-50
2022/09/18 01:35:38;;;;;;;;;;;11.30;64.80;;;;;;5118564;28;19939;-47
2022/09/18 01:38:16;;;;;;;;;;;11.30;64.00;;;;;;5118135;28;19908;-50
2022/09/18 01:40:47;;;;;;;;;;;11.20;63.50;;;;;;5118185;28;20254;-51
2022/09/18 01:43:15;;;;;;;;;;;11.20;64.00;;;;;;5118009;28;19911;-46
2022/09/18 01:45:43;;;;;;;;;;;11.20;65.90;;;;;;5120143;28;20446;-49
2022/09/18 01:48:11;;;;;;;;;;;11.20;65.20;;;;;;5121995;28;19908;-50
2022/09/18 01:50:39;;;;;;;;;;;11.20;63.90;;;;;;5122177;28;19964;-51
2022/09/18 01:53:08;;;;;;;;;;;11.20;67.60;;;;;;5122157;28;19912;-49
2022/09/18 01:55:34;;;;;;;;;;;11.10;64.30;;;;;;5121937;28;19968;-48
2022/09/18 01:58:02;;;;;;;;;;;11.20;67.00;;;;;;5121865;28;20655;-48
2022/09/18 02:00:30;;;;;;;;;;;11.10;63.90;;;;;;5122299;28;20350;-49
2022/09/18 02:03:14;;;;;;;;;;;11.10;65.40;;;;;;5121589;28;20014;-48
2022/09/18 02:06:02;;;;;;;;;;;11.00;64.50;;;;;;5121545;28;19915;-50
2022/09/18 02:08:46;;;;;;;;;;;11.10;65.10;;;;;;5121653;28;19914;-49
2022/09/18 02:11:13;;;;;;;;;;;11.00;64.10;;;;;;5122174;28;19915;-48
2022/09/18 02:13:41;;;;;;;;;;;11.00;65.00;;;;;;5121562;28;19908;-47
2022/09/18 02:16:12;;;;;;;;;;;11.00;68.20;;;;;;5121659;28;20273;-50
2022/09/18 02:18:40;;;;;;;;;;;11.00;64.60;;;;;;5121625;28;19915;-47
2022/09/18 02:21:10;;;;;;;;;;;10.90;68.40;;;;;;5121487;28;19908;-51
2022/09/18 02:23:37;;;;;;;;;;;10.90;64.90;;;;;;5121208;28;20049;-51
2022/09/18 02:26:06;;;;;;;;;;;10.90;65.10;;;;;;5121557;28;19908;-51
2022/09/18 02:28:33;;;;;;;;;;;10.90;66.20;;;;;;5121187;28;20513;-50
2022/09/18 02:30:58;;;;;;;;;;;10.90;65.60;;;;;;5121459;28;20271;-47
2022/09/18 02:33:27;;;;;;;;;;;10.90;67.60;;;;;;5121131;28;19915;-47
2022/09/18 02:35:59;;;;;;;;;;;10.90;67.60;;;;;;5121035;28;19967;-48
2022/09/18 02:38:30;;;;;;;;;;;10.80;68.10;;;;;;5121276;28;19961;-48
2022/09/18 02:41:07;;;;;;;;;;;10.80;67.00;;;;;;5121043;28;19912;-51
2022/09/18 02:44:08;;;;;;;;;;;10.80;69.20;;;;;;5121196;28;20374;-51
2022/09/18 02:46:36;;;;;;;;;;;10.80;69.00;;;;;;5018582;28;19916;-49
2022/09/18 02:49:10;;;;;;;;;;;10.80;65.40;;;;;;5101286;28;19930;-49
2022/09/18 02:51:35;;;;;;;;;;;10.80;67.80;;;;;;5121263;28;20255;-46
2022/09/18 02:54:10;;;;;;;;;;;10.70;68.10;;;;;;5120991;28;19907;-50
2022/09/18 02:56:36;;;;;;;;;;;10.70;70.90;;;;;;5120776;28;19975;-49
2022/09/18 02:59:24;;;;;;;;;;;10.70;67.10;;;;;;5120904;28;19958;-52
2022/09/18 03:01:49;;;;;;;;;;;10.70;69.50;;;;;;5120515;28;19908;-46
2022/09/18 03:04:20;;;;;;;;;;;10.60;69.20;;;;;;5120240;28;19924;-50
2022/09/18 03:06:45;;;;;;;;;;;10.60;67.40;;;;;;5120533;28;19907;-51
2022/09/18 03:09:11;;;;;;;;;;;10.60;69.20;;;;;;5120733;28;19915;-47
2022/09/18 03:11:36;;;;;;;;;;;10.60;66.40;;;;;;5120650;28;20366;-51
2022/09/18 03:14:02;;;;;;;;;;;10.50;68.60;;;;;;5120900;28;19908;-49
2022/09/18 03:16:28;;;;;;;;;;;10.50;67.50;;;;;;5120551;28;19907;-50
2022/09/18 03:18:53;;;;;;;;;;;10.50;69.50;;;;;;5120593;28;19954;-48
2022/09/18 03:21:22;;;;;;;;;;;10.50;69.00;;;;;;5120296;28;19942;-46
2022/09/18 03:23:48;;;;;;;;;;;10.50;69.60;;;;;;5120125;28;19912;-51
2022/09/18 03:26:14;;;;;;;;;;;10.50;69.60;;;;;;5120415;28;19931;-49
2022/09/18 03:28:39;;;;;;;;;;;10.50;66.20;;;;;;5120843;28;19911;-48
2022/09/18 03:31:05;;;;;;;;;;;10.50;69.30;;;;;;5120114;28;19914;-48
2022/09/18 03:33:30;;;;;;;;;;;10.50;68.90;;;;;;5120160;28;19951;-47
2022/09/18 03:35:56;;;;;;;;;;;10.50;67.70;;;;;;5120219;28;19911;-49
2022/09/18 03:38:22;;;;;;;;;;;10.40;66.00;;;;;;5119912;28;19938;-50
2022/09/18 03:40:47;;;;;;;;;;;10.40;67.30;;;;;;5120043;28;19907;-50
2022/09/18 03:43:13;;;;;;;;;;;10.40;70.50;;;;;;5119712;28;19912;-46
2022/09/18 03:45:39;;;;;;;;;;;10.30;67.70;;;;;;5119779;28;19911;-47
2022/09/18 03:48:04;;;;;;;;;;;10.40;67.10;;;;;;5119934;28;19912;-49
2022/09/18 03:50:30;;;;;;;;;;;10.30;70.90;;;;;;5119575;28;19953;-51
2022/09/18 03:52:55;;;;;;;;;;;10.30;66.10;;;;;;5119530;28;19971;-48
2022/09/18 03:55:21;;;;;;;;;;;10.30;68.10;;;;;;5119727;28;19928;-51
2022/09/18 03:57:47;;;;;;;;;;;10.30;72.00;;;;;;5119313;28;19912;-49
2022/09/18 04:00:14;;;;;;;;;;;10.30;71.20;;;;;;5119513;28;19912;-50
2022/09/18 04:02:39;;;;;;;;;;;10.40;69.50;;;;;;5119234;28;19908;-51
2022/09/18 04:05:05;;;;;;;;;;;10.30;70.30;;;;;;5119619;28;19923;-45
2022/09/18 04:07:31;;;;;;;;;;;10.30;66.80;;;;;;5119319;28;19933;-48
2022/09/18 04:09:57;;;;;;;;;;;10.20;68.10;;;;;;5119203;28;19915;-50
2022/09/18 04:12:23;;;;;;;;;;;10.10;70.10;;;;;;5119326;28;19908;-48
2022/09/18 04:14:48;;;;;;;;;;;10.20;68.90;;;;;;5119176;28;19915;-51
2022/09/18 04:17:14;;;;;;;;;;;10.20;70.60;;;;;;5119370;28;19911;-50
2022/09/18 04:19:40;;;;;;;;;;;10.10;71.70;;;;;;5119304;28;20385;-50
2022/09/18 04:22:05;;;;;;;;;;;10.10;68.00;;;;;;5119083;28;19907;-46
2022/09/18 04:24:31;;;;;;;;;;;10.10;71.70;;;;;;5118947;28;20355;-48
2022/09/18 04:26:57;;;;;;;;;;;10.10;69.20;;;;;;5119248;28;19919;-48
2022/09/18 04:29:22;;;;;;;;;;;10.10;68.30;;;;;;5119157;28;20378;-49
2022/09/18 04:31:48;;;;;;;;;;;10.00;67.80;;;;;;5118927;28;20002;-48
2022/09/18 04:34:14;;;;;;;;;;;10.00;68.80;;;;;;5118746;28;19907;-46
2022/09/18 04:36:40;;;;;;;;;;;10.00;71.10;;;;;;5118860;28;19915;-48
2022/09/18 04:39:05;;;;;;;;;;;10.00;67.20;;;;;;5118963;28;19908;-49
2022/09/18 04:41:31;;;;;;;;;;;10.10;70.60;;;;;;5118899;28;20328;-49
2022/09/18 04:43:56;;;;;;;;;;;10.00;69.00;;;;;;5118795;28;19916;-50
2022/09/18 04:46:22;;;;;;;;;;;10.00;67.40;;;;;;5118709;28;20300;-48
2022/09/18 04:48:48;;;;;;;;;;;9.90;67.10;;;;;;5118633;28;20322;-49
2022/09/18 04:51:14;;;;;;;;;;;9.90;69.80;;;;;;5118802;28;19915;-48
2022/09/18 04:53:39;;;;;;;;;;;9.90;69.00;;;;;;5118408;28;19971;-51
2022/09/18 04:56:05;;;;;;;;;;;9.90;68.70;;;;;;5118660;28;19908;-48
2022/09/18 04:58:31;;;;;;;;;;;9.90;67.60;;;;;;5118612;28;19951;-47
2022/09/18 05:00:57;;;;;;;;;;;9.80;68.70;;;;;;5118603;28;19915;-51
2022/09/18 05:03:22;;;;;;;;;;;9.80;67.60;;;;;;5118087;28;19962;-52
2022/09/18 05:05:49;;;;;;;;;;;9.80;69.30;;;;;;5118730;28;19908;-50
2022/09/18 05:08:14;;;;;;;;;;;9.80;67.70;;;;;;5118343;28;19919;-48
2022/09/18 05:10:41;;;;;;;;;;;9.80;69.30;;;;;;5118552;28;19907;-49
2022/09/18 05:13:06;;;;;;;;;;;9.80;67.60;;;;;;5118779;28;19908;-49
2022/09/18 05:15:32;;;;;;;;;;;9.80;69.00;;;;;;5118492;28;20410;-47
2022/09/18 05:17:59;;;;;;;;;;;9.80;71.00;;;;;;5118229;28;19912;-51
2022/09/18 05:20:24;;;;;;;;;;;9.80;68.00;;;;;;5121492;28;19908;-50
2022/09/18 05:22:50;;;;;;;;;;;9.80;67.60;;;;;;5122572;28;19916;-51
2022/09/18 05:25:15;;;;;;;;;;;9.70;68.00;;;;;;5122624;28;19908;-52
2022/09/18 05:27:41;;;;;;;;;;;9.80;72.30;;;;;;5122377;28;19915;-50
2022/09/18 05:30:07;;;;;;;;;;;9.70;69.40;;;;;;5122362;28;20325;-48
2022/09/18 05:32:32;;;;;;;;;;;9.70;68.60;;;;;;5122075;28;19907;-50
2022/09/18 05:34:58;;;;;;;;;;;9.70;68.00;;;;;;5122564;28;19908;-48
2022/09/18 05:37:24;;;;;;;;;;;9.70;69.40;;;;;;5122168;28;19915;-48
2022/09/18 05:39:49;;;;;;;;;;;9.70;68.60;;;;;;5122187;28;19908;-49
2022/09/18 05:42:15;;;;;;;;;;;9.70;70.40;;;;;;5121442;28;19914;-47
2022/09/18 05:44:40;;;;;;;;;;;9.60;68.20;;;;;;5121797;28;19963;-46
2022/09/18 05:47:06;;;;;;;;;;;9.60;68.10;;;;;;5121699;28;19915;-47
2022/09/18 05:49:32;;;;;;;;;;;9.60;69.80;;;;;;5122241;28;19939;-47
2022/09/18 05:51:57;;;;;;;;;;;9.60;73.20;;;;;;5121983;28;19907;-50
2022/09/18 05:54:23;;;;;;;;;;;9.60;68.80;;;;;;5121771;28;19908;-48
2022/09/18 05:56:49;;;;;;;;;;;9.60;69.00;;;;;;5121940;28;19975;-45
2022/09/18 05:59:14;;;;;;;;;;;9.60;69.20;;;;;;5121723;28;19956;-49
2022/09/18 06:01:40;;;;;;;;;;;9.60;72.80;;;;;;5121468;28;19915;-48
2022/09/18 06:04:06;;;;;;;;;;;9.60;70.80;;;;;;5121022;28;20011;-49
2022/09/18 06:06:32;;;;;;;;;;;9.50;69.40;;;;;;5121481;28;19962;-48
2022/09/18 06:08:57;;;;;;;;;;;9.50;68.90;;;;;;5121776;28;19908;-48
2022/09/18 06:11:23;;;;;;;;;;;9.50;68.50;;;;;;5122189;28;19907;-48
2022/09/18 06:13:51;;;;;;;;;;;9.50;71.80;;;;;;5121322;28;20270;-51
2022/09/18 06:16:17;;;;;;;;;;;9.50;71.60;;;;;;5121123;28;19915;-50
2022/09/18 06:18:43;;;;;;;;;;;9.60;69.60;;;;;;5121694;28;19908;-49
2022/09/18 06:21:09;;;;;;;;;;;9.50;70.20;;;;;;5121236;28;19912;-47
2022/09/18 06:23:34;;;;;;;;;;;9.50;71.50;;;;;;5121126;28;19915;-48
2022/09/18 06:26:01;;;;;;;;;;;9.60;73.10;;;;;;5121429;28;19929;-49
2022/09/18 06:28:29;;;;;;;;;;;9.60;70.50;;;;;;5121145;28;19931;-50
2022/09/18 06:30:56;;;;;;;;;;;9.60;69.60;;;;;;5120571;28;19912;-52
2022/09/18 06:33:22;;;;;;;;;;;9.60;68.80;;;;;;5121197;28;19914;-48
2022/09/18 06:35:48;;;;;;;;;;;9.50;69.30;;;;;;5121557;28;19908;-50
2022/09/18 06:38:13;;;;;;;;;;;9.60;69.80;;;;;;5121120;28;19907;-47
2022/09/18 06:40:46;;;;;;;;;;;9.60;72.20;;;;;;5120719;28;19908;-50
2022/09/18 06:43:11;;;;;;;;;;;9.60;71.70;;;;;;5121024;28;19966;-47
2022/09/18 06:45:37;;;;;;;;;;;9.70;73.60;;;;;;5121017;28;19907;-46
2022/09/18 06:48:03;;;;;;;;;;;9.80;72.50;;;;;;5120857;28;19987;-47
2022/09/18 06:50:29;;;;;;;;;;;9.80;70.40;;;;;;5120810;28;20036;-47
2022/09/18 06:53:00;;;;;;;;;;;9.80;71.20;;;;;;5120881;28;19908;-51
2022/09/18 06:55:25;;;;;;;;;;;9.90;71.00;;;;;;5120568;28;19947;-50
2022/09/18 06:57:54;;;;;;;;;;;9.90;70.40;;;;;;5120777;28;19916;-50
2022/09/18 07:00:21;;;;;;;;;;;9.90;69.90;;;;;;5120880;28;19907;-47
2022/09/18 07:02:53;;;;;;;;;;;9.90;69.90;;;;;;5120147;28;19965;-46
2022/09/18 07:05:18;;;;;;;;;;;9.90;69.40;;;;;;5120416;28;19912;-47
2022/09/18 07:07:44;;;;;;;;;;;10.00;69.40;;;;;;5120725;28;19962;-46
2022/09/18 07:10:10;;;;;;;;;;;10.00;70.90;;;;;;5120601;28;19908;-49
2022/09/18 07:12:35;;;;;;;;;;;10.10;71.70;;;;;;5120335;28;20392;-50
2022/09/18 07:15:01;;;;;;;;;;;10.10;69.80;;;;;;5120448;28;19908;-48
2022/09/18 07:17:27;;;;;;;;;;;10.10;70.70;;;;;;5120558;28;19919;-49
2022/09/18 07:19:52;;;;;;;;;;;10.20;70.50;;;;;;5120520;28;20244;-52
2022/09/18 07:22:18;;;;;;;;;;;10.30;70.60;;;;;;5120138;28;19999;-50
2022/09/18 07:24:44;;;;;;;;;;;10.30;72.80;;;;;;5120347;28;19934;-48
2022/09/18 07:27:09;;;;;;;;;;;10.40;70.80;;;;;;5120282;28;19931;-47
2022/09/18 07:29:35;;;;;;;;;;;10.40;70.00;;;;;;5119804;28;20291;-47
2022/09/18 07:32:01;;;;;;;;;;;10.50;70.50;;;;;;5119835;28;19915;-48
2022/09/18 07:34:27;;;;;;;;;;;10.60;70.30;;;;;;5120079;28;19960;-52
2022/09/18 07:36:53;;;;;;;;;;;10.60;72.30;;;;;;5119510;28;19908;-50
2022/09/18 07:39:18;;;;;;;;;;;10.70;71.10;;;;;;5119710;28;20320;-47
2022/09/18 07:41:44;;;;;;;;;;;10.80;73.10;;;;;;5119774;28;19911;-48
2022/09/18 07:44:10;;;;;;;;;;;10.90;71.50;;;;;;5118837;28;19919;-50
2022/09/18 07:46:35;;;;;;;;;;;11.00;70.60;;;;;;5120090;28;19998;-51
2022/09/18 07:49:01;;;;;;;;;;;11.00;71.50;;;;;;5119964;28;19908;-50
2022/09/18 07:51:26;;;;;;;;;;;11.10;70.80;;;;;;5119726;28;19908;-49
2022/09/18 07:53:52;;;;;;;;;;;11.20;70.80;;;;;;5119825;28;19956;-49
2022/09/18 07:56:18;;;;;;;;;;;11.20;71.80;;;;;;5119591;28;19912;-49
2022/09/18 07:58:43;;;;;;;;;;;11.30;70.50;;;;;;5118903;28;19908;-51
2022/09/18 08:01:09;;;;;;;;;;;11.40;72.80;;;;;;5119433;28;20311;-48
2022/09/18 08:03:35;;;;;;;;;;;11.50;71.10;;;;;;5119149;28;19969;-47
2022/09/18 08:06:00;;;;;;;;;;;11.60;70.80;;;;;;5119837;28;19914;-49
2022/09/18 08:08:26;;;;;;;;;;;11.60;70.00;;;;;;5119111;28;19956;-50
2022/09/18 08:10:53;;;;;;;;;;;11.80;71.90;;;;;;5118336;28;19915;-48
2022/09/18 08:13:19;;;;;;;;;;;11.90;70.90;;;;;;5119509;28;19969;-51
2022/09/18 08:15:45;;;;;;;;;;;12.00;71.30;;;;;;5118106;28;20354;-48
2022/09/18 08:18:10;;;;;;;;;;;12.10;69.90;;;;;;5119085;28;19908;-53
2022/09/18 08:20:36;;;;;;;;;;;12.30;70.60;;;;;;5117598;28;19954;-51
2022/09/18 08:23:03;;;;;;;;;;;12.50;71.30;;;;;;5118748;28;19911;-48
2022/09/18 08:25:29;;;;;;;;;;;12.60;71.00;;;;;;5119095;28;20282;-50
2022/09/18 08:27:59;;;;;;;;;;;12.80;70.20;;;;;;5119079;28;20370;-50
2022/09/18 08:30:24;;;;;;;;;;;13.00;69.40;;;;;;5119173;28;19915;-49
2022/09/18 08:32:50;;;;;;;;;;;13.20;70.30;;;;;;5118602;28;19912;-49
2022/09/18 08:35:15;;;;;;;;;;;13.40;69.20;;;;;;5119051;28;19908;-47
2022/09/18 08:37:47;;;;;;;;;;;13.60;68.70;;;;;;5119127;28;20255;-48
2022/09/18 08:40:14;;;;;;;;;;;13.80;67.90;;;;;;5118995;28;20004;-48
2022/09/18 08:42:45;;;;;;;;;;;14.00;68.10;;;;;;5118874;28;20002;-51
2022/09/18 08:45:10;;;;;;;;;;;14.10;68.10;;;;;;5118916;28;19912;-48
2022/09/18 08:47:39;;;;;;;;;;;14.40;68.30;;;;;;5118813;28;19992;-48
2022/09/18 08:50:17;;;;;;;;;;;14.50;67.00;;;;;;5118598;28;20431;-48
2022/09/18 08:52:46;;;;;;;;;;;14.80;67.70;;;;;;5118787;28;19952;-48
2022/09/18 08:55:33;;;;;;;;;;;15.10;65.70;;;;;;5118045;28;19953;-47
2022/09/18 08:58:04;;;;;;;;;;;15.50;63.70;;;;;;5118582;28;19915;-52
2022/09/18 09:00:35;;;;;;;;;;;16.00;66.20;;;;;;5118817;28;19908;-49
2022/09/18 09:03:03;;;;;;;;;;;16.40;68.60;;;;;;5107000;28;19956;-50
2022/09/18 09:05:34;;;;;;;;;;;16.90;65.50;;;;;;5097169;28;21338;-50
2022/09/18 09:07:59;;;;;;;;;;;17.80;65.90;;;;;;5098012;28;19916;-50
2022/09/18 09:10:25;;;;;;;;;;;18.80;67.60;;;;;;5098319;28;19913;-52
2022/09/18 09:13:09;;;;;;;;;;;19.60;62.80;;;;;;5097963;28;19997;-48
2022/09/18 09:15:40;;;;;;;;;;;20.70;55.80;;;;;;5098198;28;19957;-50
2022/09/18 09:18:22;;;;;;;;;;;22.10;55.50;;;;;;5097968;28;19911;-51
2022/09/18 09:20:50;;;;;;;;;;;22.60;57.70;;;;;;5097957;28;19935;-50
2022/09/18 09:23:18;;;;;;;;;;;23.80;56.70;;;;;;5097629;28;19965;-52
2022/09/18 09:25:50;;;;;;;;;;;24.00;49.00;;;;;;5097894;28;20330;-52
2022/09/18 09:28:21;;;;;;;;;;;24.70;41.30;;;;;;5098347;28;19912;-51
2022/09/18 09:30:51;;;;;;;;;;;25.10;45.20;;;;;;5097857;28;19960;-50
2022/09/18 09:33:22;;;;;;;;;;;25.60;39.50;;;;;;5097784;28;19995;-51
2022/09/18 09:35:51;;;;;;;;;;;25.60;40.00;;;;;;5097853;28;20386;-51
2022/09/18 09:38:35;;;;;;;;;;;26.70;39.20;;;;;;5097593;28;19908;-53
2022/09/18 09:41:06;;;;;;;;;;;27.10;38.70;;;;;;5097744;28;19908;-51
2022/09/18 09:43:37;;;;;;;;;;;27.90;36.30;;;;;;5097719;28;19912;-52
2022/09/18 09:46:12;;;;;;;;;;;27.80;39.30;;;;;;5097759;28;19915;-53
2022/09/18 09:48:45;;;;;;;;;;;28.20;35.20;;;;;;5097527;28;19909;-47
2022/09/18 09:51:31;;;;;;;;;;;28.70;40.30;;;;;;5097697;28;19908;-53
2022/09/18 09:53:58;;;;;;;;;;;29.40;34.00;;;;;;5097866;28;19915;-50
2022/09/18 09:56:30;;;;;;;;;;;29.10;33.10;;;;;;5097811;28;19957;-50
2022/09/18 09:59:19;;;;;;;;;;;29.00;40.20;;;;;;5097978;28;19912;-53
2022/09/18 10:01:51;;;;;;;;;;;29.40;30.90;;;;;;5069319;28;20309;-52
2022/09/18 10:04:23;;;;;;;;;;;29.00;32.90;;;;;;5097601;28;19920;-49
2022/09/18 10:07:10;;;;;;;;;;;29.90;31.80;;;;;;5099215;28;19912;-50
2022/09/18 10:09:53;;;;;;;;;;;30.70;32.30;;;;;;5101202;28;19934;-51
2022/09/18 10:12:21;;;;;;;;;;;30.80;29.10;;;;;;5101614;28;19908;-53
2022/09/18 10:14:49;;;;;;;;;;;30.00;29.70;;;;;;5100921;28;20256;-53
2022/09/18 10:17:15;;;;;;;;;;;29.60;33.50;;;;;;5101365;28;19996;-53
2022/09/18 10:19:41;;;;;;;;;;;30.20;31.60;;;;;;5100851;28;19936;-52
2022/09/18 10:22:10;;;;;;;;;;;31.10;28.70;;;;;;5101249;28;19908;-49
2022/09/18 10:24:36;;;;;;;;;;;31.20;30.50;;;;;;5100936;28;19916;-51
2022/09/18 10:27:06;;;;;;;;;;;31.30;30.50;;;;;;5100728;28;20435;-50
2022/09/18 10:29:31;;;;;;;;;;;32.30;32.90;;;;;;5100903;28;20427;-52
2022/09/18 10:31:58;;;;;;;;;;;31.90;28.80;;;;;;5100510;28;19976;-53
2022/09/18 10:34:38;;;;;;;;;;;32.00;34.90;;;;;;5100858;28;19908;-53
2022/09/18 10:37:05;;;;;;;;;;;32.20;31.70;;;;;;5100306;28;20267;-52
2022/09/18 10:39:35;;;;;;;;;;;32.40;28.10;;;;;;5100480;28;20381;-49
2022/09/18 10:42:03;;;;;;;;;;;32.10;28.60;;;;;;5100608;28;19908;-50
2022/09/18 10:44:35;;;;;;;;;;;32.90;31.20;;;;;;5100118;28;20002;-52
2022/09/18 10:47:09;;;;;;;;;;;31.20;27.70;;;;;;5100696;28;19908;-52
2022/09/18 10:49:48;;;;;;;;;;;31.90;32.00;;;;;;5100379;28;19908;-53
2022/09/18 10:52:13;;;;;;;;;;;31.20;27.30;;;;;;5081904;28;19908;-52
2022/09/18 10:54:39;;;;;;;;;;;30.00;26.90;;;;;;5099831;28;20367;-51
2022/09/18 10:57:25;;;;;;;;;;;29.20;30.30;;;;;;5100324;28;19987;-53
2022/09/18 10:59:51;;;;;;;;;;;29.20;28.40;;;;;;5099731;28;19915;-50
2022/09/18 11:02:18;;;;;;;;;;;29.00;28.60;;;;;;5099488;28;19908;-52
2022/09/18 11:04:47;;;;;;;;;;;29.20;33.00;;;;;;5099561;28;19920;-51
2022/09/18 11:07:13;;;;;;;;;;;30.30;30.10;;;;;;5100544;28;19908;-51
2022/09/18 11:09:39;;;;;;;;;;;30.00;28.30;;;;;;5100011;28;20000;-52
2022/09/18 11:12:12;;;;;;;;;;;28.70;29.90;;;;;;5100164;28;19972;-52
2022/09/18 11:14:41;;;;;;;;;;;29.00;28.80;;;;;;5100397;28;19909;-53
2022/09/18 11:17:15;;;;;;;;;;;28.50;29.20;;;;;;5099658;28;19951;-52
2022/09/18 11:19:40;;;;;;;;;;;28.30;28.90;;;;;;5099839;28;20393;-52
2022/09/18 11:22:26;;;;;;;;;;;27.80;28.50;;;;;;5100239;28;19915;-53
2022/09/18 11:25:05;;;;;;;;;;;28.30;30.00;;;;;;5099910;28;19912;-49
2022/09/18 11:27:42;;;;;;;;;;;28.60;28.90;;;;;;5100055;28;19915;-52
2022/09/18 11:30:15;;;;;;;;;;;28.40;28.90;;;;;;5099006;28;19915;-49
2022/09/18 11:32:43;;;;;;;;;;;28.00;29.20;;;;;;5099434;28;19908;-52
2022/09/18 11:35:14;;;;;;;;;;;27.60;29.30;;;;;;5099367;28;19908;-52
2022/09/18 11:37:46;;;;;;;;;;;28.00;31.40;;;;;;5099667;28;20003;-52
2022/09/18 11:40:20;;;;;;;;;;;28.90;28.70;;;;;;5099696;28;20389;-53
2022/09/18 11:42:47;;;;;;;;;;;28.00;29.20;;;;;;5099450;28;19912;-53
2022/09/18 11:45:28;;;;;;;;;;;27.80;29.70;;;;;;5099229;28;20272;-52
2022/09/18 11:47:59;;;;;;;;;;;27.60;29.20;;;;;;5099217;28;19991;-51
2022/09/18 11:50:28;;;;;;;;;;;28.20;29.60;;;;;;5080759;28;19956;-51
2022/09/18 11:52:58;;;;;;;;;;;27.90;29.70;;;;;;5097281;28;19923;-49
2022/09/18 11:55:29;;;;;;;;;;;27.60;29.50;;;;;;5098332;28;19911;-53
2022/09/18 11:58:01;;;;;;;;;;;27.90;29.10;;;;;;5097993;28;19908;-52
2022/09/18 12:00:29;;;;;;;;;;;27.60;29.20;;;;;;5099083;28;19965;-50
2022/09/18 12:02:58;;;;;;;;;;;27.90;28.30;;;;;;5098585;28;19977;-50
2022/09/18 12:05:29;;;;;;;;;;;27.20;29.10;;;;;;5098837;28;19908;-49
2022/09/18 12:08:11;;;;;;;;;;;27.70;29.00;;;;;;5098768;28;19999;-51
2022/09/18 12:10:46;;;;;;;;;;;27.50;28.60;;;;;;5098458;28;19908;-48
2022/09/18 12:13:24;;;;;;;;;;;26.80;29.10;;;;;;5098339;28;19916;-53
2022/09/18 12:15:54;;;;;;;;;;;27.50;29.10;;;;;;5097298;28;19915;-50
2022/09/18 12:18:25;;;;;;;;;;;27.60;28.50;;;;;;5097673;28;19912;-49
2022/09/18 12:20:54;;;;;;;;;;;27.50;29.40;;;;;;5098231;28;19908;-52
2022/09/18 12:23:24;;;;;;;;;;;28.30;29.10;;;;;;5098166;28;20367;-52
2022/09/18 12:25:50;;;;;;;;;;;28.30;28.40;;;;;;5098662;28;19908;-52
2022/09/18 12:28:40;;;;;;;;;;;28.40;29.10;;;;;;5098543;28;19919;-52
2022/09/18 12:31:11;;;;;;;;;;;28.10;28.90;;;;;;5098240;28;19908;-50
2022/09/18 12:33:43;;;;;;;;;;;26.80;28.60;;;;;;5098394;28;20282;-52
2022/09/18 12:36:09;;;;;;;;;;;25.90;30.50;;;;;;5098646;28;19915;-52
2022/09/18 12:38:40;;;;;;;;;;;26.20;29.90;;;;;;5098298;28;19908;-53
2022/09/18 12:41:12;;;;;;;;;;;26.60;30.20;;;;;;5097121;28;19912;-53
2022/09/18 12:43:42;;;;;;;;;;;27.10;28.80;;;;;;5098376;28;19912;-51
2022/09/18 12:46:16;;;;;;;;;;;27.20;29.80;;;;;;5098372;28;19916;-51
2022/09/18 12:48:44;;;;;;;;;;;27.30;29.10;;;;;;5098396;28;20679;-51
2022/09/18 12:51:13;;;;;;;;;;;27.70;29.30;;;;;;5098450;28;20279;-52
2022/09/18 12:53:39;;;;;;;;;;;28.40;29.90;;;;;;5098329;28;19999;-51
2022/09/18 12:56:23;;;;;;;;;;;28.50;29.50;;;;;;5098308;28;19966;-51
2022/09/18 12:58:49;;;;;;;;;;;28.40;28.60;;;;;;5098045;28;19908;-52
2022/09/18 13:01:35;;;;;;;;;;;27.80;28.70;;;;;;5098226;28;19916;-52
2022/09/18 13:04:04;;;;;;;;;;;27.90;30.10;;;;;;5097762;28;20030;-49
2022/09/18 13:06:36;;;;;;;;;;;28.10;29.30;;;;;;5097961;28;19943;-50
2022/09/18 13:09:07;;;;;;;;;;;28.50;29.90;;;;;;5097879;28;19908;-50
2022/09/18 13:11:53;;;;;;;;;;;28.00;28.20;;;;;;5098011;28;19908;-50
2022/09/18 13:14:27;;;;;;;;;;;27.70;29.80;;;;;;5098095;28;19909;-51
2022/09/18 13:16:56;;;;;;;;;;;27.70;29.30;;;;;;5098084;28;20337;-53
2022/09/18 13:19:22;;;;;;;;;;;27.40;30.10;;;;;;5097843;28;19908;-50
2022/09/18 13:21:50;;;;;;;;;;;27.10;29.60;;;;;;5098091;28;19914;-52
2022/09/18 13:24:18;;;;;;;;;;;27.80;29.30;;;;;;5097930;28;20052;-49
2022/09/18 13:26:46;;;;;;;;;;;27.40;29.30;;;;;;5097902;28;19908;-53
2022/09/18 13:29:30;;;;;;;;;;;27.20;29.20;;;;;;5097969;28;19908;-50
2022/09/18 13:31:56;;;;;;;;;;;27.00;29.70;;;;;;5097703;28;19995;-51
2022/09/18 13:34:22;;;;;;;;;;;25.90;29.70;;;;;;5097803;28;19942;-48
2022/09/18 13:36:48;;;;;;;;;;;26.00;30.00;;;;;;5097532;28;20374;-48
2022/09/18 13:39:16;;;;;;;;;;;26.50;30.00;;;;;;5097739;28;19908;-52
2022/09/18 13:41:47;;;;;;;;;;;26.30;29.80;;;;;;5100863;28;19928;-51
2022/09/18 13:44:23;;;;;;;;;;;27.10;29.50;;;;;;5101926;28;19912;-53
2022/09/18 13:46:51;;;;;;;;;;;27.00;29.00;;;;;;5101963;28;19908;-52
2022/09/18 13:49:18;;;;;;;;;;;25.80;29.80;;;;;;5101997;28;20279;-52
2022/09/18 13:51:44;;;;;;;;;;;26.00;29.60;;;;;;5101681;28;19912;-51
2022/09/18 13:54:09;;;;;;;;;;;25.50;30.00;;;;;;5101665;28;20367;-49
2022/09/18 13:56:53;;;;;;;;;;;25.80;30.10;;;;;;5101579;28;20338;-52
2022/09/18 13:59:21;;;;;;;;;;;25.60;30.40;;;;;;5101790;28;19956;-50
2022/09/18 14:02:00;;;;;;;;;;;25.40;30.40;;;;;;5101530;28;19915;-50
2022/09/18 14:04:38;;;;;;;;;;;24.80;31.40;;;;;;5100848;28;19920;-53
2022/09/18 14:07:23;;;;;;;;;;;24.90;31.20;;;;;;5101828;28;19958;-53
2022/09/18 14:09:49;;;;;;;;;;;25.00;30.00;;;;;;5101295;28;20010;-49
2022/09/18 14:12:15;;;;;;;;;;;24.80;31.40;;;;;;5101443;28;19997;-52
2022/09/18 14:14:41;;;;;;;;;;;25.10;32.30;;;;;;5101305;28;19908;-49
2022/09/18 14:17:11;;;;;;;;;;;25.40;31.30;;;;;;5101215;28;19908;-52
2022/09/18 14:19:39;;;;;;;;;;;25.90;31.10;;;;;;5100771;28;19908;-48
2022/09/18 14:22:21;;;;;;;;;;;26.50;30.20;;;;;;5101067;28;19912;-49
2022/09/18 14:24:50;;;;;;;;;;;26.40;30.30;;;;;;5100523;28;20390;-48
2022/09/18 14:27:34;;;;;;;;;;;25.90;30.00;;;;;;5100586;28;20062;-50
2022/09/18 14:30:19;;;;;;;;;;;25.90;30.50;;;;;;5100992;28;19915;-52